Time;durP1;ratioP1;P1;durP2;ratioP2;P2;SDS_P1;SDS_P2;PMS_P1;PMS_P2;Temp;Humidity;BMP_temperature;BMP_pressure;BME280_temperature;BME280_humidity;BME280_pressure;Samples;Min_cycle;Max_cycle;Signal;HPM_P1;HPM_P2
2021/01/02 00:00:46;;;;;;;8.77;4.13;;;;;;;;;;5027939;28;20038;-51
2021/01/02 00:03:24;;;;;;;6.85;4.32;;;;;;;;;;5028615;28;20033;-53
2021/01/02 00:06:01;;;;;;;5.90;3.70;;;;;;;;;;5028739;28;20034;-52
2021/01/02 00:08:28;;;;;;;7.03;4.25;;;;;;;;;;5028678;28;20064;-56
2021/01/02 00:11:07;;;;;;;6.53;3.97;;;;;;;;;;5022436;28;20048;-51
2021/01/02 00:13:40;;;;;;;6.45;3.80;;;;;;;;;;5028541;28;20026;-52
2021/01/02 00:16:14;;;;;;;6.97;4.18;;;;;;;;;;5028474;28;20108;-49
2021/01/02 00:19:02;;;;;;;7.20;3.78;;;;;;;;;;5027969;28;20029;-51
2021/01/02 00:21:29;;;;;;;9.20;4.60;;;;;;;;;;5027690;28;20040;-50
2021/01/02 00:23:55;;;;;;;10.15;5.03;;;;;;;;;;5028153;28;20029;-52
2021/01/02 00:26:40;;;;;;;7.60;4.47;;;;;;;;;;5027170;28;20419;-51
2021/01/02 00:29:08;;;;;;;7.72;5.03;;;;;;;;;;5027280;28;20079;-53
2021/01/02 00:31:40;;;;;;;7.78;4.03;;;;;;;;;;5027746;28;20035;-55
2021/01/02 00:34:18;;;;;;;8.38;4.22;;;;;;;;;;5030404;28;20021;-54
2021/01/02 00:36:54;;;;;;;6.82;3.85;;;;;;;;;;5027759;28;20029;-52
2021/01/02 00:39:32;;;;;;;5.55;3.60;;;;;;;;;;5026013;28;20063;-52
2021/01/02 00:41:58;;;;;;;7.78;3.28;;;;;;;;;;5007239;28;20049;-50
2021/01/02 00:44:25;;;;;;;6.40;3.78;;;;;;;;;;5020131;28;20038;-53
2021/01/02 00:46:51;;;;;;;5.40;3.80;;;;;;;;;;5023635;28;20383;-49
2021/01/02 00:49:18;;;;;;;8.45;3.80;;;;;;;;;;5026882;28;20040;-49
2021/01/02 00:51:58;;;;;;;6.35;3.25;;;;;;;;;;5027806;28;20022;-53
2021/01/02 00:54:31;;;;;;;5.38;3.28;;;;;;;;;;5027025;28;20024;-51
2021/01/02 00:57:03;;;;;;;7.22;3.30;;;;;;;;;;5022334;28;20029;-50
2021/01/02 00:59:39;;;;;;;6.10;3.45;;;;;;;;;;5027181;28;20041;-53
2021/01/02 01:02:05;;;;;;;4.32;3.15;;;;;;;;;;5027309;28;20508;-54
2021/01/02 01:04:43;;;;;;;5.30;3.13;;;;;;;;;;5027805;28;20029;-51
2021/01/02 01:07:13;;;;;;;5.43;3.35;;;;;;;;;;5027696;28;20029;-55
2021/01/02 01:09:42;;;;;;;4.38;2.83;;;;;;;;;;5027485;28;20029;-51
2021/01/02 01:12:08;;;;;;;5.40;2.60;;;;;;;;;;5026886;28;20059;-51
2021/01/02 01:14:36;;;;;;;5.10;2.83;;;;;;;;;;5014777;28;20575;-55
2021/01/02 01:17:03;;;;;;;6.05;3.30;;;;;;;;;;5027127;28;20534;-52
2021/01/02 01:19:29;;;;;;;6.90;3.88;;;;;;;;;;5027419;28;20041;-51
2021/01/02 01:21:58;;;;;;;5.57;3.50;;;;;;;;;;5027216;28;20571;-53
2021/01/02 01:24:24;;;;;;;7.05;3.95;;;;;;;;;;5027170;28;20033;-50
2021/01/02 01:27:04;;;;;;;7.45;3.10;;;;;;;;;;5026771;28;20030;-52
2021/01/02 01:29:42;;;;;;;4.50;3.30;;;;;;;;;;5027509;28;20021;-52
2021/01/02 01:32:08;;;;;;;6.68;3.10;;;;;;;;;;5027347;28;20022;-54
2021/01/02 01:34:35;;;;;;;13.88;6.90;;;;;;;;;;5031333;28;20033;-49
2021/01/02 01:37:05;;;;;;;12.25;4.85;;;;;;;;;;5027283;28;20092;-49
2021/01/02 01:39:31;;;;;;;8.55;4.28;;;;;;;;;;5027428;28;20029;-50
2021/01/02 01:42:04;;;;;;;6.50;3.45;;;;;;;;;;5027085;28;20061;-52
2021/01/02 01:44:52;;;;;;;5.57;3.00;;;;;;;;;;5020440;28;20076;-55
2021/01/02 01:47:20;;;;;;;4.38;3.17;;;;;;;;;;5020482;28;20034;-49
2021/01/02 01:49:58;;;;;;;5.30;2.97;;;;;;;;;;5022208;28;20110;-52
2021/01/02 01:52:44;;;;;;;6.07;2.80;;;;;;;;;;5027988;28;20060;-53
2021/01/02 01:55:14;;;;;;;6.40;2.92;;;;;;;;;;5008980;28;20033;-54
2021/01/02 01:57:41;;;;;;;6.15;2.72;;;;;;;;;;5030401;28;20037;-53
2021/01/02 02:00:11;;;;;;;3.88;2.85;;;;;;;;;;5030472;28;20508;-54
2021/01/02 02:02:39;;;;;;;7.32;3.17;;;;;;;;;;5030247;28;20124;-53
2021/01/02 02:05:10;;;;;;;4.03;2.72;;;;;;;;;;5031057;28;20083;-49
2021/01/02 02:07:54;;;;;;;6.75;3.58;;;;;;;;;;5031029;28;20060;-49
2021/01/02 02:10:26;;;;;;;4.18;3.35;;;;;;;;;;5030415;28;20036;-54
2021/01/02 02:12:54;;;;;;;7.00;3.97;;;;;;;;;;5030278;28;20042;-49
2021/01/02 02:15:23;;;;;;;6.50;3.97;;;;;;;;;;5030780;28;20029;-52
2021/01/02 02:17:52;;;;;;;6.82;4.25;;;;;;;;;;5030279;28;20045;-50
2021/01/02 02:20:19;;;;;;;8.57;4.40;;;;;;;;;;5030582;28;20029;-51
2021/01/02 02:22:46;;;;;;;7.20;4.43;;;;;;;;;;5017892;28;20088;-53
2021/01/02 02:25:13;;;;;;;7.75;4.55;;;;;;;;;;5020582;28;20030;-51
2021/01/02 02:27:40;;;;;;;8.05;4.63;;;;;;;;;;5030486;28;20033;-53
2021/01/02 02:30:16;;;;;;;6.85;4.30;;;;;;;;;;5029612;28;20030;-51
2021/01/02 02:32:43;;;;;;;8.73;4.90;;;;;;;;;;5030345;28;20465;-49
2021/01/02 02:35:13;;;;;;;9.45;5.15;;;;;;;;;;5041880;28;20040;-53
2021/01/02 02:37:41;;;;;;;7.43;4.65;;;;;;;;;;5030048;28;20029;-52
2021/01/02 02:40:07;;;;;;;8.02;5.25;;;;;;;;;;5029256;28;20064;-54
2021/01/02 02:42:34;;;;;;;9.75;5.32;;;;;;;;;;5029459;28;20037;-54
2021/01/02 02:45:01;;;;;;;9.05;5.32;;;;;;;;;;5029814;28;20474;-52
2021/01/02 02:47:29;;;;;;;8.35;5.35;;;;;;;;;;5030033;28;20029;-50
2021/01/02 02:49:58;;;;;;;8.95;5.28;;;;;;;;;;5030008;28;20033;-50
2021/01/02 02:52:24;;;;;;;9.35;5.97;;;;;;;;;;5029252;28;20030;-56
2021/01/02 02:54:50;;;;;;;8.70;5.35;;;;;;;;;;5028932;28;20025;-50
2021/01/02 02:57:17;;;;;;;8.20;5.55;;;;;;;;;;5027348;28;20545;-49
2021/01/02 02:59:43;;;;;;;11.70;5.65;;;;;;;;;;5029764;28;20114;-50
2021/01/02 03:02:10;;;;;;;9.82;5.88;;;;;;;;;;5028940;28;20143;-51
2021/01/02 03:04:36;;;;;;;10.35;5.90;;;;;;;;;;5029449;28;20040;-55
2021/01/02 03:07:05;;;;;;;10.32;5.63;;;;;;;;;;5029248;28;20037;-56
2021/01/02 03:09:32;;;;;;;7.57;4.40;;;;;;;;;;5028893;28;20029;-51
2021/01/02 03:11:58;;;;;;;10.07;4.63;;;;;;;;;;5028879;28;20025;-54
2021/01/02 03:14:24;;;;;;;8.07;5.10;;;;;;;;;;5029454;28;20018;-53
2021/01/02 03:16:54;;;;;;;9.75;5.70;;;;;;;;;;5029734;28;20021;-52
2021/01/02 03:19:20;;;;;;;10.77;5.05;;;;;;;;;;5010629;28;20030;-52
2021/01/02 03:21:46;;;;;;;14.77;5.57;;;;;;;;;;5028071;28;20064;-52
2021/01/02 03:24:12;;;;;;;11.60;6.03;;;;;;;;;;5028966;28;20088;-53
2021/01/02 03:26:38;;;;;;;9.05;4.45;;;;;;;;;;5028637;28;20037;-51
2021/01/02 03:29:04;;;;;;;7.45;4.95;;;;;;;;;;5029092;28;20021;-52
2021/01/02 03:31:30;;;;;;;11.95;5.35;;;;;;;;;;5028676;28;20029;-51
2021/01/02 03:33:56;;;;;;;11.07;6.57;;;;;;;;;;5036098;28;20341;-49
2021/01/02 03:36:22;;;;;;;15.20;7.47;;;;;;;;;;5037393;28;20480;-51
2021/01/02 03:38:52;;;;;;;11.90;6.93;;;;;;;;;;5028698;28;20025;-50
2021/01/02 03:41:18;;;;;;;13.00;8.27;;;;;;;;;;5027879;28;20095;-51
2021/01/02 03:43:44;;;;;;;14.90;7.95;;;;;;;;;;5028548;28;20041;-53
2021/01/02 03:46:10;;;;;;;14.05;7.68;;;;;;;;;;5028511;28;20029;-51
2021/01/02 03:48:36;;;;;;;10.98;7.13;;;;;;;;;;5016175;28;20370;-53
2021/01/02 03:51:02;;;;;;;14.65;6.97;;;;;;;;;;5008534;28;20458;-52
2021/01/02 03:53:29;;;;;;;15.98;7.88;;;;;;;;;;5008754;28;20465;-51
2021/01/02 03:55:55;;;;;;;13.25;7.57;;;;;;;;;;5008232;28;20338;-49
2021/01/02 03:58:21;;;;;;;12.48;7.68;;;;;;;;;;5020440;28;20036;-54
2021/01/02 04:00:47;;;;;;;13.07;7.60;;;;;;;;;;5027708;28;20362;-49
2021/01/02 04:03:13;;;;;;;14.85;7.47;;;;;;;;;;5027697;28;20787;-50
2021/01/02 04:05:39;;;;;;;16.42;8.40;;;;;;;;;;5018472;28;20049;-50
2021/01/02 04:08:06;;;;;;;20.50;9.25;;;;;;;;;;5022357;28;20095;-49
2021/01/02 04:10:32;;;;;;;17.25;9.02;;;;;;;;;;5027270;28;20056;-51
2021/01/02 04:12:58;;;;;;;17.23;8.50;;;;;;;;;;5029063;28;20034;-54
2021/01/02 04:15:24;;;;;;;16.17;9.00;;;;;;;;;;5027917;28;20021;-49
2021/01/02 04:17:50;;;;;;;17.67;10.00;;;;;;;;;;5027704;28;20025;-53
2021/01/02 04:20:16;;;;;;;26.55;11.68;;;;;;;;;;5028216;28;20508;-49
2021/01/02 04:22:43;;;;;;;64.53;27.58;;;;;;;;;;5027250;28;20030;-49
2021/01/02 04:25:09;;;;;;;33.80;16.63;;;;;;;;;;5027747;28;20041;-53
2021/01/02 04:27:35;;;;;;;23.10;13.00;;;;;;;;;;5027593;28;20029;-49
2021/01/02 04:30:01;;;;;;;20.80;11.68;;;;;;;;;;5027548;28;20025;-48
2021/01/02 04:32:27;;;;;;;22.27;12.05;;;;;;;;;;5027158;28;20037;-53
2021/01/02 04:34:53;;;;;;;19.85;10.82;;;;;;;;;;5034442;28;20029;-54
2021/01/02 04:37:25;;;;;;;23.40;12.52;;;;;;;;;;5007846;28;20025;-49
2021/01/02 04:39:51;;;;;;;21.73;11.40;;;;;;;;;;5025107;28;20044;-51
2021/01/02 04:42:17;;;;;;;23.67;12.35;;;;;;;;;;5027284;28;20045;-53
2021/01/02 04:44:43;;;;;;;27.10;13.25;;;;;;;;;;5027152;28;20040;-51
2021/01/02 04:47:09;;;;;;;23.75;13.00;;;;;;;;;;5026613;28;20029;-53
2021/01/02 04:49:35;;;;;;;22.58;11.65;;;;;;;;;;5027744;28;20034;-49
2021/01/02 04:52:01;;;;;;;19.30;11.55;;;;;;;;;;5026858;28;20029;-49
2021/01/02 04:54:28;;;;;;;19.70;11.43;;;;;;;;;;5027691;28;20076;-51
2021/01/02 04:56:54;;;;;;;21.75;11.85;;;;;;;;;;5026926;28;20037;-48
2021/01/02 04:59:24;;;;;;;22.00;12.07;;;;;;;;;;5026601;28;20029;-50
2021/01/02 05:01:52;;;;;;;17.48;9.98;;;;;;;;;;5028129;28;20090;-49
2021/01/02 05:04:18;;;;;;;20.90;11.70;;;;;;;;;;5026704;28;20036;-53
2021/01/02 05:06:44;;;;;;;18.08;10.35;;;;;;;;;;5018613;28;20037;-53
2021/01/02 05:09:10;;;;;;;21.55;10.25;;;;;;;;;;5026833;28;20045;-53
2021/01/02 05:11:37;;;;;;;19.73;10.80;;;;;;;;;;5026463;28;20030;-50
2021/01/02 05:14:04;;;;;;;20.98;9.98;;;;;;;;;;5027070;28;20017;-51
2021/01/02 05:16:41;;;;;;;22.55;11.85;;;;;;;;;;5027056;28;20041;-51
2021/01/02 05:19:09;;;;;;;21.75;11.32;;;;;;;;;;5010142;28;20477;-48
2021/01/02 05:21:37;;;;;;;19.05;11.18;;;;;;;;;;5011349;28;20022;-52
2021/01/02 05:24:10;;;;;;;20.58;10.35;;;;;;;;;;5013629;28;20034;-48
2021/01/02 05:26:37;;;;;;;19.95;10.55;;;;;;;;;;5030645;28;20125;-51
2021/01/02 05:29:17;;;;;;;19.38;10.50;;;;;;;;;;5030834;28;20022;-50
2021/01/02 05:31:44;;;;;;;17.45;10.18;;;;;;;;;;5031232;28;20100;-48
2021/01/02 05:34:11;;;;;;;22.95;11.20;;;;;;;;;;5031523;28;20477;-50
2021/01/02 05:36:37;;;;;;;16.80;9.63;;;;;;;;;;5015076;28;20026;-50
2021/01/02 05:39:05;;;;;;;19.48;10.90;;;;;;;;;;5031734;28;20025;-50
2021/01/02 05:41:46;;;;;;;17.45;9.63;;;;;;;;;;5011368;28;20104;-51
2021/01/02 05:44:12;;;;;;;19.27;10.73;;;;;;;;;;5011341;28;20574;-49
2021/01/02 05:46:45;;;;;;;17.98;10.27;;;;;;;;;;5011494;28;20022;-50
2021/01/02 05:49:29;;;;;;;17.13;9.25;;;;;;;;;;5017736;28;20029;-50
2021/01/02 05:51:58;;;;;;;17.30;10.65;;;;;;;;;;5031786;28;20033;-50
2021/01/02 05:54:25;;;;;;;19.15;9.55;;;;;;;;;;5030709;28;20511;-51
2021/01/02 05:56:54;;;;;;;18.30;9.60;;;;;;;;;;5029996;28;20029;-50
2021/01/02 05:59:29;;;;;;;17.90;10.05;;;;;;;;;;5030409;28;20037;-53
2021/01/02 06:01:55;;;;;;;15.98;10.00;;;;;;;;;;5029254;28;20041;-54
2021/01/02 06:04:21;;;;;;;18.77;10.15;;;;;;;;;;5030079;28;20098;-48
2021/01/02 06:07:05;;;;;;;19.05;10.43;;;;;;;;;;5015459;28;20038;-50
2021/01/02 06:09:31;;;;;;;20.05;10.68;;;;;;;;;;5030549;28;20026;-47
2021/01/02 06:12:00;;;;;;;20.45;11.13;;;;;;;;;;5029702;28;20030;-49
2021/01/02 06:14:26;;;;;;;19.80;11.70;;;;;;;;;;5029105;28;20021;-48
2021/01/02 06:16:52;;;;;;;20.75;11.82;;;;;;;;;;5030271;28;20017;-54
2021/01/02 06:19:18;;;;;;;18.45;11.57;;;;;;;;;;5030089;28;20033;-48
2021/01/02 06:21:45;;;;;;;22.15;11.57;;;;;;;;;;5029846;28;20577;-51
2021/01/02 06:24:10;;;;;;;20.50;10.43;;;;;;;;;;5030381;28;20050;-48
2021/01/02 06:26:36;;;;;;;23.45;12.07;;;;;;;;;;5029435;28;20382;-51
2021/01/02 06:29:02;;;;;;;23.85;11.63;;;;;;;;;;5026803;28;20037;-52
2021/01/02 06:31:34;;;;;;;20.45;11.57;;;;;;;;;;5030050;28;20025;-48
2021/01/02 06:34:05;;;;;;;22.63;12.27;;;;;;;;;;5038258;28;20567;-53
2021/01/02 06:36:33;;;;;;;24.95;12.50;;;;;;;;;;5033829;28;20029;-51
2021/01/02 06:39:18;;;;;;;19.30;11.45;;;;;;;;;;5029858;28;20056;-49
2021/01/02 06:41:44;;;;;;;20.83;11.75;;;;;;;;;;5028951;28;20053;-51
2021/01/02 06:44:10;;;;;;;22.30;12.23;;;;;;;;;;5029604;28;20053;-53
2021/01/02 06:46:37;;;;;;;21.15;12.02;;;;;;;;;;5029117;28;20029;-51
2021/01/02 06:49:32;;;;;;;22.20;13.10;;;;;;;;;;5029884;28;20380;-51
2021/01/02 06:51:58;;;;;;;26.40;13.18;;;;;;;;;;5029515;28;20025;-52
2021/01/02 06:54:24;;;;;;;23.77;12.77;;;;;;;;;;5028792;28;20025;-48
2021/01/02 06:57:01;;;;;;;23.35;12.60;;;;;;;;;;5028760;28;20643;-50
2021/01/02 06:59:27;;;;;;;25.45;13.40;;;;;;;;;;5025853;28;20032;-53
2021/01/02 07:01:53;;;;;;;25.73;13.70;;;;;;;;;;5029137;28;20037;-49
2021/01/02 07:04:33;;;;;;;23.92;12.82;;;;;;;;;;5029101;28;20022;-50
2021/01/02 07:06:59;;;;;;;25.58;13.30;;;;;;;;;;5029011;28;20034;-51
2021/01/02 07:09:26;;;;;;;22.60;12.25;;;;;;;;;;5028934;28;20057;-55
2021/01/02 07:12:12;;;;;;;21.23;11.57;;;;;;;;;;5028446;28;20072;-53
2021/01/02 07:14:39;;;;;;;22.50;12.13;;;;;;;;;;5028038;28;20037;-51
2021/01/02 07:17:06;;;;;;;21.77;11.40;;;;;;;;;;5028495;28;20460;-53
2021/01/02 07:19:36;;;;;;;21.38;11.82;;;;;;;;;;5029192;28;20040;-48
2021/01/02 07:22:02;;;;;;;23.30;12.65;;;;;;;;;;5029078;28;20059;-51
2021/01/02 07:24:29;;;;;;;21.20;12.23;;;;;;;;;;5027192;28;20041;-49
2021/01/02 07:27:01;;;;;;;23.00;12.25;;;;;;;;;;5027652;28;20719;-51
2021/01/02 07:29:27;;;;;;;24.80;12.63;;;;;;;;;;5009268;28;20476;-49
2021/01/02 07:31:53;;;;;;;20.27;12.07;;;;;;;;;;5024614;28;20098;-49
2021/01/02 07:34:20;;;;;;;20.92;12.25;;;;;;;;;;5039622;28;20112;-53
2021/01/02 07:36:46;;;;;;;25.98;12.88;;;;;;;;;;5048882;28;20021;-53
2021/01/02 07:39:13;;;;;;;21.30;12.57;;;;;;;;;;5048542;28;20047;-49
2021/01/02 07:41:40;;;;;;;24.48;13.50;;;;;;;;;;5028940;28;20559;-54
2021/01/02 07:44:06;;;;;;;23.70;13.15;;;;;;;;;;5028330;28;20037;-49
2021/01/02 07:46:33;;;;;;;25.13;13.63;;;;;;;;;;5023360;28;20397;-48
2021/01/02 07:48:59;;;;;;;26.73;14.52;;;;;;;;;;5028405;28;20053;-51
2021/01/02 07:51:26;;;;;;;23.40;13.02;;;;;;;;;;5028436;28;20053;-51
2021/01/02 07:53:53;;;;;;;21.85;13.25;;;;;;;;;;5027691;28;20060;-48
2021/01/02 07:56:35;;;;;;;21.65;12.98;;;;;;;;;;5027526;28;20036;-51
2021/01/02 07:59:20;;;;;;;20.05;11.70;;;;;;;;;;5008452;28;20046;-50
2021/01/02 08:01:53;;;;;;;19.90;12.88;;;;;;;;;;5008152;28;20030;-53
2021/01/02 08:04:19;;;;;;;21.90;12.80;;;;;;;;;;5008706;28;20025;-51
2021/01/02 08:06:46;;;;;;;24.40;14.10;;;;;;;;;;5008283;28;20099;-50
2021/01/02 08:09:12;;;;;;;21.35;12.55;;;;;;;;;;5025004;28;20860;-49
2021/01/02 08:11:39;;;;;;;24.40;13.32;;;;;;;;;;5028350;28;20034;-54
2021/01/02 08:14:05;;;;;;;22.35;12.77;;;;;;;;;;5019048;28;20051;-50
2021/01/02 08:16:31;;;;;;;32.47;17.42;;;;;;;;;;5019332;28;20493;-53
2021/01/02 08:19:04;;;;;;;88.93;54.03;;;;;;;;;;5027773;28;20044;-50
2021/01/02 08:21:36;;;;;;;26.35;15.68;;;;;;;;;;5026978;28;20022;-50
2021/01/02 08:24:02;;;;;;;28.17;16.02;;;;;;;;;;5028156;28;20453;-49
2021/01/02 08:26:29;;;;;;;27.92;16.05;;;;;;;;;;5027610;28;20030;-53
2021/01/02 08:28:55;;;;;;;24.27;14.40;;;;;;;;;;5011004;28;20036;-51
2021/01/02 08:31:23;;;;;;;27.02;15.55;;;;;;;;;;5023494;28;20022;-48
2021/01/02 08:33:51;;;;;;;25.65;16.67;;;;;;;;;;5033925;28;20085;-49
2021/01/02 08:36:17;;;;;;;21.55;13.55;;;;;;;;;;5047301;28;20140;-53
2021/01/02 08:38:44;;;;;;;32.03;19.38;;;;;;;;;;5031392;28;20465;-51
2021/01/02 08:41:20;;;;;;;19.55;12.57;;;;;;;;;;5027353;28;20045;-49
2021/01/02 08:43:48;;;;;;;24.10;13.35;;;;;;;;;;5027058;28;20051;-54
2021/01/02 08:46:14;;;;;;;22.65;13.27;;;;;;;;;;5026762;28;20021;-49
2021/01/02 08:48:46;;;;;;;23.23;13.20;;;;;;;;;;5025010;28;20548;-52
2021/01/02 08:51:22;;;;;;;21.80;13.27;;;;;;;;;;5027674;28;20028;-48
2021/01/02 08:53:48;;;;;;;22.77;12.65;;;;;;;;;;5026944;28;20767;-53
2021/01/02 08:56:24;;;;;;;22.50;12.38;;;;;;;;;;5015512;28;20030;-48
2021/01/02 08:58:51;;;;;;;22.63;12.50;;;;;;;;;;5020883;28;20369;-51
2021/01/02 09:01:17;;;;;;;19.20;12.15;;;;;;;;;;5024406;28;20041;-52
2021/01/02 09:03:43;;;;;;;20.42;12.43;;;;;;;;;;5010804;28;20045;-53
2021/01/02 09:06:22;;;;;;;23.77;13.38;;;;;;;;;;5022897;28;20071;-49
2021/01/02 09:09:07;;;;;;;25.08;14.20;;;;;;;;;;5026066;28;20519;-51
2021/01/02 09:11:49;;;;;;;26.58;14.32;;;;;;;;;;5024940;28;20531;-50
2021/01/02 09:14:15;;;;;;;19.45;12.85;;;;;;;;;;5026908;28;20084;-49
2021/01/02 09:16:42;;;;;;;22.30;12.27;;;;;;;;;;5025868;28;20032;-49
2021/01/02 09:19:23;;;;;;;21.92;13.60;;;;;;;;;;5025687;28;20650;-51
2021/01/02 09:21:49;;;;;;;26.40;14.18;;;;;;;;;;5025629;28;20037;-48
2021/01/02 09:24:22;;;;;;;23.38;12.60;;;;;;;;;;5025348;28;20497;-54
2021/01/02 09:26:48;;;;;;;14.35;8.90;;;;;;;;;;5026149;28;20592;-54
2021/01/02 09:29:15;;;;;;;18.63;11.63;;;;;;;;;;5025821;28;20025;-50
2021/01/02 09:31:41;;;;;;;21.77;11.55;;;;;;;;;;5025657;28;20505;-50
2021/01/02 09:34:08;;;;;;;21.60;11.57;;;;;;;;;;5023435;28;20079;-53
2021/01/02 09:36:34;;;;;;;22.40;16.45;;;;;;;;;;5026442;28;20108;-52
2021/01/02 09:39:00;;;;;;;22.60;11.27;;;;;;;;;;5022691;28;20051;-54
2021/01/02 09:41:26;;;;;;;20.00;10.95;;;;;;;;;;5024891;28;20053;-50
2021/01/02 09:43:54;;;;;;;18.15;10.35;;;;;;;;;;5026261;28;20025;-49
2021/01/02 09:46:20;;;;;;;21.10;11.25;;;;;;;;;;5025117;28;20028;-52
2021/01/02 09:48:47;;;;;;;17.73;11.00;;;;;;;;;;5013992;28;20862;-48
2021/01/02 09:51:14;;;;;;;16.63;10.07;;;;;;;;;;5007116;28;20030;-52
2021/01/02 09:53:40;;;;;;;17.95;10.90;;;;;;;;;;5011462;28;20029;-51
2021/01/02 09:56:06;;;;;;;18.83;10.95;;;;;;;;;;5026905;28;20109;-53
2021/01/02 09:58:32;;;;;;;17.95;10.65;;;;;;;;;;5026572;28;20543;-52
2021/01/02 10:00:58;;;;;;;18.88;11.75;;;;;;;;;;5023483;28;20033;-55
2021/01/02 10:03:24;;;;;;;19.15;11.25;;;;;;;;;;5020464;28;20029;-51
2021/01/02 10:05:50;;;;;;;33.17;17.25;;;;;;;;;;5024828;28;20030;-52
2021/01/02 10:08:16;;;;;;;22.30;12.00;;;;;;;;;;5018837;28;20029;-54
2021/01/02 10:10:42;;;;;;;18.90;10.75;;;;;;;;;;5030246;28;20401;-52
2021/01/02 10:13:08;;;;;;;17.45;11.18;;;;;;;;;;5031642;28;20095;-55
2021/01/02 10:15:34;;;;;;;20.65;11.85;;;;;;;;;;5030919;28;20568;-52
2021/01/02 10:18:00;;;;;;;20.48;11.25;;;;;;;;;;5016035;28;20044;-53
2021/01/02 10:20:26;;;;;;;16.90;10.73;;;;;;;;;;5024793;28;20036;-49
2021/01/02 10:22:52;;;;;;;17.10;10.32;;;;;;;;;;5029448;28;20033;-50
2021/01/02 10:25:18;;;;;;;29.80;15.57;;;;;;;;;;5025855;28;20061;-52
2021/01/02 10:27:44;;;;;;;18.23;10.63;;;;;;;;;;5029439;28;20033;-54
2021/01/02 10:30:11;;;;;;;20.30;11.82;;;;;;;;;;5030084;28;20029;-54
2021/01/02 10:32:37;;;;;;;18.30;10.73;;;;;;;;;;5028415;28;20029;-53
2021/01/02 10:35:04;;;;;;;18.13;10.70;;;;;;;;;;5031741;28;20485;-51
2021/01/02 10:37:30;;;;;;;19.35;11.60;;;;;;;;;;5029454;28;20034;-50
2021/01/02 10:39:57;;;;;;;20.67;11.20;;;;;;;;;;5030764;28;20040;-51
2021/01/02 10:42:25;;;;;;;19.85;10.85;;;;;;;;;;5024678;28;20049;-54
2021/01/02 10:44:51;;;;;;;16.88;11.07;;;;;;;;;;5029995;28;20429;-50
2021/01/02 10:47:18;;;;;;;22.63;12.98;;;;;;;;;;5029848;28;20128;-54
2021/01/02 10:49:44;;;;;;;19.17;11.05;;;;;;;;;;5022792;28;20334;-54
2021/01/02 10:52:10;;;;;;;20.65;10.80;;;;;;;;;;5029404;28;20021;-50
2021/01/02 10:54:36;;;;;;;17.13;10.80;;;;;;;;;;5029572;28;20036;-49
2021/01/02 10:57:02;;;;;;;17.25;10.57;;;;;;;;;;5029491;28;20543;-55
2021/01/02 10:59:28;;;;;;;18.73;11.00;;;;;;;;;;5029099;28;20033;-52
2021/01/02 11:01:56;;;;;;;18.63;11.18;;;;;;;;;;5028277;28;20504;-51
2021/01/02 11:04:23;;;;;;;17.50;10.23;;;;;;;;;;5030072;28;20029;-54
2021/01/02 11:06:50;;;;;;;16.27;10.57;;;;;;;;;;5024408;28;20354;-49
2021/01/02 11:09:16;;;;;;;19.35;12.20;;;;;;;;;;5023732;28;20037;-53
2021/01/02 11:11:42;;;;;;;16.63;9.98;;;;;;;;;;5029420;28;20037;-53
2021/01/02 11:14:10;;;;;;;15.93;10.70;;;;;;;;;;5020250;28;20027;-56
2021/01/02 11:16:37;;;;;;;16.27;9.85;;;;;;;;;;5024703;28;20048;-56
2021/01/02 11:19:04;;;;;;;18.75;10.57;;;;;;;;;;5028479;28;20025;-50
2021/01/02 11:21:30;;;;;;;22.20;12.13;;;;;;;;;;5028299;28;20025;-53
2021/01/02 11:23:56;;;;;;;19.55;10.82;;;;;;;;;;5028017;28;20436;-54
2021/01/02 11:26:22;;;;;;;17.38;9.55;;;;;;;;;;5021832;28;20018;-55
2021/01/02 11:28:48;;;;;;;15.57;9.50;;;;;;;;;;5019231;28;20030;-53
2021/01/02 11:31:14;;;;;;;16.08;9.55;;;;;;;;;;5024300;28;20414;-50
2021/01/02 11:33:40;;;;;;;17.90;10.82;;;;;;;;;;5032540;28;20067;-49
2021/01/02 11:36:06;;;;;;;18.92;11.50;;;;;;;;;;5047059;28;20488;-54
2021/01/02 11:38:32;;;;;;;18.75;10.68;;;;;;;;;;5021470;28;20037;-51
2021/01/02 11:40:58;;;;;;;17.20;9.63;;;;;;;;;;5027578;28;20041;-55
2021/01/02 11:43:24;;;;;;;18.38;10.32;;;;;;;;;;5028351;28;20091;-53
2021/01/02 11:45:50;;;;;;;16.30;10.23;;;;;;;;;;5023853;28;20026;-51
2021/01/02 11:48:17;;;;;;;18.25;10.35;;;;;;;;;;5020498;28;20029;-49
2021/01/02 11:50:43;;;;;;;15.80;9.43;;;;;;;;;;5010502;28;20034;-53
2021/01/02 11:53:10;;;;;;;21.23;10.60;;;;;;;;;;5028076;28;20026;-55
2021/01/02 11:55:36;;;;;;;16.20;9.75;;;;;;;;;;5024002;28;20029;-50
2021/01/02 11:58:02;;;;;;;19.05;10.95;;;;;;;;;;5027195;28;20065;-51
2021/01/02 12:00:30;;;;;;;16.50;9.65;;;;;;;;;;5025452;28;20040;-54
2021/01/02 12:02:56;;;;;;;17.23;10.52;;;;;;;;;;5026290;28;20385;-55
2021/01/02 12:05:22;;;;;;;18.50;9.68;;;;;;;;;;5027713;28;20021;-50
2021/01/02 12:07:48;;;;;;;18.25;9.27;;;;;;;;;;5021518;28;20022;-54
2021/01/02 12:10:14;;;;;;;18.90;9.65;;;;;;;;;;5022674;28;20056;-55
2021/01/02 12:12:40;;;;;;;15.82;10.13;;;;;;;;;;5024470;28;20071;-53
2021/01/02 12:15:06;;;;;;;15.35;9.68;;;;;;;;;;5025482;28;20029;-50
2021/01/02 12:17:33;;;;;;;15.10;9.02;;;;;;;;;;5018530;28;20071;-56
2021/01/02 12:20:00;;;;;;;17.58;10.20;;;;;;;;;;5026129;28;20104;-54
2021/01/02 12:22:26;;;;;;;19.20;10.10;;;;;;;;;;5027018;28;20041;-50
2021/01/02 12:24:52;;;;;;;16.55;9.68;;;;;;;;;;5027577;28;20029;-49
2021/01/02 12:27:18;;;;;;;18.35;10.27;;;;;;;;;;5027139;28;20041;-54
2021/01/02 12:29:44;;;;;;;19.33;11.32;;;;;;;;;;5026261;28;20111;-50
2021/01/02 12:32:10;;;;;;;31.17;16.40;;;;;;;;;;5027309;28;20037;-51
2021/01/02 12:34:38;;;;;;;27.52;14.25;;;;;;;;;;5036122;28;20057;-54
2021/01/02 12:37:05;;;;;;;23.63;12.32;;;;;;;;;;5020417;28;20370;-51
2021/01/02 12:39:32;;;;;;;31.50;15.25;;;;;;;;;;5026766;28;20044;-51
2021/01/02 12:41:58;;;;;;;20.55;11.65;;;;;;;;;;5027129;28;20050;-53
2021/01/02 12:44:25;;;;;;;19.25;11.38;;;;;;;;;;5027159;28;20124;-48
2021/01/02 12:46:52;;;;;;;16.33;10.40;;;;;;;;;;5027321;28;20033;-52
2021/01/02 12:49:20;;;;;;;18.38;10.60;;;;;;;;;;5027526;28;20656;-54
2021/01/02 12:51:46;;;;;;;15.45;9.80;;;;;;;;;;5027074;28;20087;-52
2021/01/02 12:54:12;;;;;;;18.58;10.15;;;;;;;;;;5026939;28;20112;-53
2021/01/02 12:56:42;;;;;;;14.15;9.23;;;;;;;;;;5027468;28;20034;-54
2021/01/02 12:59:08;;;;;;;16.77;10.05;;;;;;;;;;5020872;28;20049;-55
2021/01/02 13:01:41;;;;;;;17.80;10.23;;;;;;;;;;5026462;28;20025;-50
2021/01/02 13:04:07;;;;;;;16.00;9.40;;;;;;;;;;5027248;28;20068;-50
2021/01/02 13:06:33;;;;;;;17.42;10.27;;;;;;;;;;5027411;28;20041;-53
2021/01/02 13:08:59;;;;;;;17.13;9.80;;;;;;;;;;5026769;28;20029;-54
2021/01/02 13:11:25;;;;;;;16.48;9.55;;;;;;;;;;5027180;28;20385;-52
2021/01/02 13:13:52;;;;;;;16.08;9.65;;;;;;;;;;5027133;28;20041;-52
2021/01/02 13:16:18;;;;;;;19.23;11.13;;;;;;;;;;5026651;28;20414;-52
2021/01/02 13:18:44;;;;;;;17.27;10.18;;;;;;;;;;5027192;28;20026;-54
2021/01/02 13:21:10;;;;;;;16.85;10.15;;;;;;;;;;5026731;28;20029;-54
2021/01/02 13:23:39;;;;;;;17.83;10.18;;;;;;;;;;5024448;28;20084;-49
2021/01/02 13:26:10;;;;;;;18.27;9.90;;;;;;;;;;5024825;28;20033;-56
2021/01/02 13:28:36;;;;;;;17.02;9.80;;;;;;;;;;5024724;28;20049;-54
2021/01/02 13:31:02;;;;;;;17.45;9.80;;;;;;;;;;5024568;28;20440;-54
2021/01/02 13:33:28;;;;;;;17.83;10.60;;;;;;;;;;5018509;28;20047;-52
2021/01/02 13:35:54;;;;;;;18.02;10.73;;;;;;;;;;5026992;28;20036;-54
2021/01/02 13:38:20;;;;;;;20.98;10.85;;;;;;;;;;5028400;28;20025;-55
2021/01/02 13:40:46;;;;;;;19.42;10.20;;;;;;;;;;5031196;28;20064;-51
2021/01/02 13:43:12;;;;;;;18.10;11.30;;;;;;;;;;5031303;28;20743;-51
2021/01/02 13:45:38;;;;;;;23.25;13.48;;;;;;;;;;5030634;28;20030;-51
2021/01/02 13:48:04;;;;;;;20.38;10.40;;;;;;;;;;5027866;28;20025;-54
2021/01/02 13:50:30;;;;;;;18.13;10.65;;;;;;;;;;5026054;28;20394;-52
2021/01/02 13:52:56;;;;;;;18.05;10.60;;;;;;;;;;5031560;28;20025;-52
2021/01/02 13:55:22;;;;;;;16.92;10.32;;;;;;;;;;5026339;28;20029;-51
2021/01/02 13:57:50;;;;;;;19.65;10.68;;;;;;;;;;5030126;28;20032;-53
2021/01/02 14:00:16;;;;;;;20.58;10.60;;;;;;;;;;5030471;28;20033;-52
2021/01/02 14:02:42;;;;;;;19.63;11.10;;;;;;;;;;5031627;28;20034;-55
2021/01/02 14:05:08;;;;;;;18.08;10.85;;;;;;;;;;5032052;28;20030;-54
2021/01/02 14:07:34;;;;;;;22.15;12.52;;;;;;;;;;5018500;28;20479;-56
2021/01/02 14:10:00;;;;;;;24.05;12.43;;;;;;;;;;5029513;28;20018;-52
2021/01/02 14:12:26;;;;;;;19.98;11.23;;;;;;;;;;5030688;28;20029;-53
2021/01/02 14:14:52;;;;;;;17.83;10.77;;;;;;;;;;5030531;28;20375;-52
2021/01/02 14:17:21;;;;;;;21.55;12.25;;;;;;;;;;5026536;28;20140;-53
2021/01/02 14:19:47;;;;;;;21.55;11.60;;;;;;;;;;5028350;28;20046;-53
2021/01/02 14:22:13;;;;;;;19.90;11.32;;;;;;;;;;5036210;28;20025;-51
2021/01/02 14:24:38;;;;;;;20.05;11.38;;;;;;;;;;5030470;28;20036;-52
2021/01/02 14:27:05;;;;;;;18.65;11.13;;;;;;;;;;5026219;28;20039;-50
2021/01/02 14:29:32;;;;;;;19.70;11.55;;;;;;;;;;5024047;28;20021;-52